createdAt,value
2022-11-29T00:01:12.596Z,6.30
2022-11-29T00:03:39.540Z,6.30
2022-11-29T00:06:13.562Z,6.30
2022-11-29T00:08:43.935Z,6.30
2022-11-29T00:11:35.448Z,6.30
2022-11-29T00:14:02.710Z,6.20
2022-11-29T00:16:29.356Z,6.20
2022-11-29T00:18:56.101Z,6.20
2022-11-29T00:21:22.675Z,6.20
2022-11-29T00:23:49.293Z,6.20
2022-11-29T00:26:16.055Z,6.20
2022-11-29T00:28:42.715Z,6.20
2022-11-29T00:31:30.187Z,6.20
2022-11-29T00:33:59.074Z,6.30
2022-11-29T00:36:26.207Z,6.30
2022-11-29T00:38:53.248Z,6.30
2022-11-29T00:41:20.254Z,6.30
2022-11-29T00:43:46.847Z,6.30
2022-11-29T00:46:13.485Z,6.30
2022-11-29T00:48:40.055Z,6.30
2022-11-29T00:51:07.544Z,6.30
2022-11-29T00:53:35.856Z,6.30
2022-11-29T00:56:04.147Z,6.30
2022-11-29T00:58:31.232Z,6.30
2022-11-29T01:00:57.983Z,6.30
2022-11-29T01:03:25.083Z,6.30
2022-11-29T01:05:52.212Z,6.30
2022-11-29T01:08:19.099Z,6.30
2022-11-29T01:10:45.814Z,6.30
2022-11-29T01:13:13.749Z,6.30
2022-11-29T01:15:41.433Z,6.30
2022-11-29T01:18:08.096Z,6.30
2022-11-29T01:20:34.668Z,6.30
2022-11-29T01:23:01.249Z,6.30
2022-11-29T01:25:27.965Z,6.30
2022-11-29T01:27:54.704Z,6.30
2022-11-29T01:30:21.380Z,6.30
2022-11-29T01:32:48.084Z,6.30
2022-11-29T01:35:14.668Z,6.30
2022-11-29T01:37:41.301Z,6.30
2022-11-29T01:40:08.548Z,6.20
2022-11-29T01:42:35.182Z,6.20
2022-11-29T01:45:13.836Z,6.20
2022-11-29T01:47:45.291Z,6.20
2022-11-29T01:50:12.023Z,6.10
2022-11-29T01:52:39.075Z,6.20
2022-11-29T01:55:07.996Z,6.10
2022-11-29T01:57:36.932Z,6.10
2022-11-29T02:00:15.172Z,6.10
2022-11-29T02:02:55.695Z,6.10
2022-11-29T02:05:23.588Z,6.10
2022-11-29T02:07:54.635Z,6.10
2022-11-29T02:11:06.741Z,6.10
2022-11-29T02:14:05.518Z,6.10
2022-11-29T02:16:39.525Z,6.00
2022-11-29T02:20:07.402Z,6.10
2022-11-29T02:22:53.047Z,6.00
2022-11-29T02:25:49.839Z,6.00
2022-11-29T02:28:39.130Z,6.00
2022-11-29T02:31:30.712Z,5.90
2022-11-29T02:34:06.223Z,5.90
2022-11-29T02:36:51.335Z,5.90
2022-11-29T02:39:55.061Z,5.90
2022-11-29T02:42:56.626Z,5.90
2022-11-29T02:45:49.389Z,5.90
2022-11-29T02:48:42.688Z,5.90
2022-11-29T02:51:47.807Z,5.90
2022-11-29T02:54:25.825Z,6.00
2022-11-29T02:57:42.016Z,5.90
2022-11-29T03:00:20.177Z,5.90
2022-11-29T03:03:13.540Z,5.90
2022-11-29T03:05:56.971Z,5.90
2022-11-29T03:09:15.519Z,5.90
2022-11-29T03:12:02.349Z,5.90
2022-11-29T03:14:56.918Z,5.90
2022-11-29T03:18:10.383Z,6.00
2022-11-29T03:21:07.558Z,6.00
2022-11-29T03:23:50.590Z,6.00
2022-11-29T03:26:40.683Z,5.90
2022-11-29T03:29:27.608Z,5.90
2022-11-29T03:32:08.663Z,5.90
2022-11-29T03:35:02.189Z,6.00
2022-11-29T03:38:02.949Z,6.00
2022-11-29T03:40:50.992Z,6.00
2022-11-29T03:43:32.232Z,6.00
2022-11-29T03:46:24.660Z,6.10
2022-11-29T03:49:01.567Z,6.10
2022-11-29T03:51:50.840Z,6.10
2022-11-29T03:54:26.161Z,6.00
2022-11-29T03:56:53.489Z,6.10
2022-11-29T04:00:12.921Z,6.10
2022-11-29T04:03:10.056Z,6.10
2022-11-29T04:06:08.636Z,6.10
2022-11-29T04:09:29.556Z,6.00
2022-11-29T04:12:20.242Z,6.00
2022-11-29T04:15:21.931Z,6.00
2022-11-29T04:18:28.100Z,6.00
2022-11-29T04:21:21.640Z,6.00
2022-11-29T04:24:25.932Z,6.00
2022-11-29T04:27:10.709Z,6.00
2022-11-29T04:29:54.636Z,6.00
2022-11-29T04:33:07.480Z,6.00
2022-11-29T04:36:04.204Z,6.00
2022-11-29T04:39:11.841Z,6.00
2022-11-29T04:41:56.831Z,6.10
2022-11-29T04:44:45.575Z,6.00
2022-11-29T04:47:44.119Z,6.00
2022-11-29T04:50:42.114Z,6.00
2022-11-29T04:53:56.003Z,6.10
2022-11-29T04:56:41.167Z,6.10
2022-11-29T04:59:23.009Z,6.00
2022-11-29T05:02:40.467Z,6.00
2022-11-29T05:05:18.744Z,6.10
2022-11-29T05:08:17.301Z,6.10
2022-11-29T05:11:34.824Z,6.10
2022-11-29T05:14:26.894Z,6.10
2022-11-29T05:17:30.747Z,6.00
2022-11-29T05:20:24.303Z,6.10
2022-11-29T05:23:24.908Z,6.00
2022-11-29T05:26:13.724Z,6.10
2022-11-29T05:29:05.255Z,6.10
2022-11-29T05:32:19.483Z,6.10
2022-11-29T05:35:19.286Z,6.10
2022-11-29T05:37:55.042Z,6.10
2022-11-29T05:41:16.937Z,6.10
2022-11-29T05:44:05.093Z,6.10
2022-11-29T05:46:58.719Z,6.10
2022-11-29T05:49:41.332Z,6.10
2022-11-29T05:52:42.043Z,6.00
2022-11-29T05:55:14.865Z,6.00
2022-11-29T05:58:11.652Z,6.00
2022-11-29T06:00:50.549Z,6.10
2022-11-29T06:03:44.661Z,6.10
2022-11-29T06:06:26.002Z,6.00
2022-11-29T06:09:19.406Z,6.10
2022-11-29T06:11:52.949Z,6.00
2022-11-29T06:15:00.147Z,6.00
2022-11-29T06:18:15.578Z,6.00
2022-11-29T06:21:14.590Z,6.00
2022-11-29T06:24:23.330Z,6.00
2022-11-29T06:27:52.134Z,6.00
2022-11-29T06:30:51.902Z,6.10
2022-11-29T06:33:53.746Z,6.10
2022-11-29T06:36:34.427Z,6.10
2022-11-29T06:39:04.782Z,6.10
2022-11-29T06:41:34.845Z,6.10
2022-11-29T06:44:06.882Z,6.10
2022-11-29T06:46:48.006Z,6.10
2022-11-29T06:49:30.890Z,6.10
2022-11-29T06:52:28.286Z,6.10
2022-11-29T06:55:26.710Z,6.10
2022-11-29T06:58:32.868Z,6.10
2022-11-29T07:01:39.856Z,6.10
2022-11-29T07:04:34.120Z,6.10
2022-11-29T07:07:01.006Z,6.10
2022-11-29T07:09:34.168Z,6.10
2022-11-29T07:12:01.100Z,6.10
2022-11-29T07:14:28.129Z,6.10
2022-11-29T07:17:22.749Z,6.10
2022-11-29T07:19:59.466Z,6.30
2022-11-29T07:22:43.213Z,6.30
2022-11-29T07:25:35.217Z,6.20
2022-11-29T07:28:41.694Z,6.20
2022-11-29T07:31:34.110Z,6.30
2022-11-29T07:34:51.554Z,6.20
2022-11-29T07:37:36.904Z,6.20
2022-11-29T07:40:40.161Z,6.30
2022-11-29T07:43:32.674Z,6.40
2022-11-29T07:46:00.104Z,6.40
2022-11-29T07:48:26.863Z,6.40
2022-11-29T07:50:55.326Z,6.40
2022-11-29T07:53:23.184Z,6.40
2022-11-29T07:55:50.263Z,6.50
2022-11-29T07:58:18.362Z,6.40
2022-11-29T08:00:45.399Z,6.50
2022-11-29T08:03:12.416Z,6.40
2022-11-29T08:05:39.779Z,6.40
2022-11-29T08:08:06.987Z,6.40
2022-11-29T08:10:34.411Z,6.40
2022-11-29T08:13:01.012Z,6.50
2022-11-29T08:15:27.697Z,6.50
2022-11-29T08:17:54.378Z,6.50
2022-11-29T08:20:20.998Z,6.50
2022-11-29T08:22:59.159Z,6.50
2022-11-29T08:25:27.387Z,6.50
2022-11-29T08:27:55.820Z,6.50
2022-11-29T08:30:23.475Z,6.50
2022-11-29T08:32:51.847Z,6.50
2022-11-29T08:35:21.330Z,6.50
2022-11-29T08:37:47.934Z,6.50
2022-11-29T08:40:16.000Z,6.50
2022-11-29T08:42:42.620Z,6.50
2022-11-29T08:45:10.023Z,6.50
2022-11-29T08:47:38.115Z,6.50
2022-11-29T08:50:15.385Z,6.50
2022-11-29T08:53:05.373Z,6.50
2022-11-29T08:55:40.387Z,6.50
2022-11-29T08:58:13.573Z,6.50
2022-11-29T09:00:42.955Z,6.50
2022-11-29T09:03:48.280Z,6.50
2022-11-29T09:06:15.935Z,6.60
2022-11-29T09:08:43.673Z,6.70
2022-11-29T09:11:17.240Z,6.70
2022-11-29T09:13:46.451Z,6.70
2022-11-29T09:16:17.860Z,6.80
2022-11-29T09:18:50.028Z,6.80
2022-11-29T09:21:18.548Z,6.80
2022-11-29T09:23:45.905Z,6.90
2022-11-29T09:26:19.302Z,6.90
2022-11-29T09:28:46.716Z,7.00
2022-11-29T09:31:16.104Z,7.00
2022-11-29T09:33:42.928Z,7.10
2022-11-29T09:36:16.590Z,7.10
2022-11-29T09:38:43.186Z,7.10
2022-11-29T09:41:58.203Z,7.20
2022-11-29T09:44:48.255Z,7.30
2022-11-29T09:47:42.584Z,7.30
2022-11-29T09:50:45.648Z,7.30
2022-11-29T09:53:25.890Z,7.30
2022-11-29T09:56:48.376Z,7.30
2022-11-29T09:59:42.732Z,7.40
2022-11-29T10:02:21.130Z,7.40
2022-11-29T10:04:54.119Z,7.30
2022-11-29T10:07:32.712Z,7.30
2022-11-29T10:10:23.193Z,7.30
2022-11-29T10:12:58.491Z,7.30
2022-11-29T10:15:32.368Z,7.40
2022-11-29T10:18:15.449Z,7.40
2022-11-29T10:20:49.034Z,7.40
2022-11-29T10:23:22.340Z,7.40
2022-11-29T10:25:53.232Z,7.40
2022-11-29T10:28:32.207Z,7.30
2022-11-29T10:31:29.041Z,7.30
2022-11-29T10:33:59.215Z,7.40
2022-11-29T10:36:39.462Z,7.50
2022-11-29T10:39:19.573Z,7.50
2022-11-29T10:41:49.602Z,7.60
2022-11-29T10:44:16.270Z,7.70
2022-11-29T10:46:43.202Z,7.80
2022-11-29T10:49:17.660Z,7.80
2022-11-29T10:51:46.246Z,7.80
2022-11-29T10:54:37.201Z,7.90
2022-11-29T10:57:14.360Z,8.00
2022-11-29T10:59:40.976Z,8.00
2022-11-29T11:02:19.051Z,8.00
2022-11-29T11:04:47.812Z,8.10
2022-11-29T11:07:35.517Z,8.10
2022-11-29T11:10:30.694Z,8.10
2022-11-29T11:13:04.732Z,8.10
2022-11-29T11:15:32.724Z,8.20
2022-11-29T11:18:06.499Z,8.20
2022-11-29T11:20:36.789Z,8.20
2022-11-29T11:23:42.356Z,8.30
2022-11-29T11:26:13.119Z,8.40
2022-11-29T11:29:00.149Z,8.40
2022-11-29T11:31:38.356Z,8.40
2022-11-29T11:34:37.597Z,8.40
2022-11-29T11:37:22.456Z,8.30
2022-11-29T11:39:53.034Z,8.30
2022-11-29T11:42:40.236Z,8.20
2022-11-29T11:45:15.331Z,8.10
2022-11-29T11:47:53.911Z,8.10
2022-11-29T11:50:36.201Z,8.10
2022-11-29T11:53:18.094Z,8.10
2022-11-29T11:55:59.414Z,8.00
2022-11-29T11:58:37.149Z,8.00
2022-11-29T12:01:12.968Z,8.00
2022-11-29T12:04:04.956Z,8.00
2022-11-29T12:06:52.471Z,7.90
2022-11-29T12:09:56.149Z,8.00
2022-11-29T12:12:36.978Z,8.00
2022-11-29T12:15:07.827Z,7.90
2022-11-29T12:17:46.326Z,7.90
2022-11-29T12:20:39.729Z,7.90
2022-11-29T12:23:56.585Z,7.90
2022-11-29T12:26:58.559Z,7.90
2022-11-29T12:29:33.405Z,7.90
2022-11-29T12:32:14.602Z,8.00
2022-11-29T12:35:08.848Z,8.00
2022-11-29T12:37:49.295Z,8.10
2022-11-29T12:40:38.826Z,8.00
2022-11-29T12:43:45.259Z,8.00
2022-11-29T12:46:25.880Z,8.00
2022-11-29T12:49:30.983Z,8.00
2022-11-29T12:52:20.709Z,8.00
2022-11-29T12:55:06.967Z,8.00
2022-11-29T12:58:10.457Z,8.00
2022-11-29T13:01:15.713Z,7.90
2022-11-29T13:04:13.425Z,7.90
2022-11-29T13:06:47.125Z,7.90
2022-11-29T13:10:02.451Z,8.10
2022-11-29T13:13:15.382Z,8.00
2022-11-29T13:16:25.081Z,8.10
2022-11-29T13:19:39.174Z,8.10
2022-11-29T13:22:52.538Z,8.10
2022-11-29T13:25:27.423Z,8.00
2022-11-29T13:28:01.977Z,8.10
2022-11-29T13:30:28.669Z,8.10
2022-11-29T13:33:26.268Z,8.20
2022-11-29T13:36:23.083Z,8.20
2022-11-29T13:39:52.759Z,8.20
2022-11-29T13:42:52.224Z,8.20
2022-11-29T13:45:41.249Z,8.20
2022-11-29T13:48:48.520Z,8.20
2022-11-29T13:51:32.520Z,8.10
2022-11-29T13:54:06.600Z,8.10
2022-11-29T13:56:46.079Z,8.10
2022-11-29T13:59:29.443Z,8.10
2022-11-29T14:01:58.201Z,8.10
2022-11-29T14:04:34.921Z,8.10
2022-11-29T14:07:19.453Z,8.00
2022-11-29T14:10:02.089Z,8.10
2022-11-29T14:12:49.722Z,8.10
2022-11-29T14:15:27.556Z,8.20
2022-11-29T14:18:02.716Z,8.20
2022-11-29T14:20:29.225Z,8.20
2022-11-29T14:23:04.845Z,8.10
2022-11-29T14:25:52.035Z,8.10
2022-11-29T14:28:22.021Z,8.00
2022-11-29T14:34:15.763Z,8.00
2022-11-29T14:36:48.200Z,8.00
2022-11-29T14:39:46.772Z,8.00
2022-11-29T14:42:19.596Z,8.00
2022-11-29T14:45:00.572Z,7.90
2022-11-29T14:47:38.046Z,7.90
2022-11-29T14:50:09.696Z,7.90
2022-11-29T14:52:41.603Z,7.90
2022-11-29T14:55:17.415Z,7.90
2022-11-29T14:58:05.789Z,7.80
2022-11-29T15:00:48.821Z,7.80
2022-11-29T15:03:36.716Z,7.90
2022-11-29T15:06:13.551Z,7.90
2022-11-29T15:08:51.792Z,7.90
2022-11-29T15:11:43.199Z,7.80
2022-11-29T15:14:32.088Z,7.70
2022-11-29T15:17:07.748Z,7.70
2022-11-29T15:20:11.293Z,7.60
2022-11-29T15:22:54.344Z,7.60
2022-11-29T15:25:31.604Z,7.50
2022-11-29T15:28:02.181Z,7.50
2022-11-29T15:30:37.124Z,7.50
2022-11-29T15:33:07.644Z,7.50
2022-11-29T15:35:36.317Z,7.50
2022-11-29T15:38:03.583Z,7.50
2022-11-29T15:40:35.259Z,7.40
2022-11-29T15:43:26.057Z,7.40
2022-11-29T15:45:55.513Z,7.40
2022-11-29T15:48:31.211Z,7.40
2022-11-29T15:51:30.294Z,7.40
2022-11-29T15:54:13.792Z,7.40
2022-11-29T15:56:47.877Z,7.40
2022-11-29T15:59:32.449Z,7.40
2022-11-29T16:02:08.187Z,7.40
2022-11-29T16:04:42.195Z,7.40
2022-11-29T16:07:12.272Z,7.40
2022-11-29T16:09:44.988Z,7.40
2022-11-29T16:12:17.700Z,7.40
2022-11-29T16:14:57.814Z,7.40
2022-11-29T16:17:33.802Z,7.30
2022-11-29T16:20:16.509Z,7.30
2022-11-29T16:22:46.448Z,7.20
2022-11-29T16:25:19.289Z,7.20
2022-11-29T16:27:46.565Z,7.10
2022-11-29T16:30:26.426Z,7.10
2022-11-29T16:32:57.628Z,7.00
2022-11-29T16:35:33.802Z,7.00
2022-11-29T16:38:04.232Z,7.00
2022-11-29T16:40:33.900Z,6.90
2022-11-29T16:43:03.211Z,6.90
2022-11-29T16:45:31.480Z,6.90
2022-11-29T16:47:59.469Z,6.90
2022-11-29T16:50:31.212Z,6.90
2022-11-29T16:53:53.028Z,7.00
2022-11-29T16:56:28.574Z,7.00
2022-11-29T16:59:20.626Z,7.00
2022-11-29T17:01:48.209Z,7.00
2022-11-29T17:04:23.960Z,7.00
2022-11-29T17:06:56.083Z,7.00
2022-11-29T17:09:27.820Z,7.00
2022-11-29T17:11:56.141Z,7.00
2022-11-29T17:14:22.953Z,7.00
2022-11-29T17:16:49.621Z,7.00
2022-11-29T17:19:16.584Z,7.00
2022-11-29T17:21:43.285Z,7.00
2022-11-29T17:24:13.961Z,7.00
2022-11-29T17:26:42.357Z,7.00
2022-11-29T17:29:13.873Z,7.00
2022-11-29T17:31:43.066Z,7.10
2022-11-29T17:34:09.993Z,7.00
2022-11-29T17:36:36.893Z,7.10
2022-11-29T17:39:05.147Z,7.10
2022-11-29T17:41:32.838Z,7.10
2022-11-29T17:44:00.189Z,7.10
2022-11-29T17:46:30.098Z,7.10
2022-11-29T17:49:00.240Z,7.10
2022-11-29T17:54:16.544Z,7.10
2022-11-29T17:57:01.895Z,7.10
2022-11-29T17:59:28.505Z,7.10
2022-11-29T18:01:55.381Z,7.10
2022-11-29T18:04:42.161Z,7.20
2022-11-29T18:07:08.784Z,7.10
2022-11-29T18:09:35.359Z,7.10
2022-11-29T18:12:03.321Z,7.10
2022-11-29T18:14:30.838Z,7.10
2022-11-29T18:16:57.519Z,7.10
2022-11-29T18:19:25.164Z,7.10
2022-11-29T18:21:52.209Z,7.10
2022-11-29T18:24:19.411Z,7.10
2022-11-29T18:26:46.380Z,7.10
2022-11-29T18:29:13.307Z,7.10
2022-11-29T18:31:43.114Z,7.10
2022-11-29T18:34:13.580Z,7.10
2022-11-29T18:36:46.752Z,7.00
2022-11-29T18:39:19.259Z,7.00
2022-11-29T18:41:49.752Z,7.00
2022-11-29T18:44:19.841Z,7.00
2022-11-29T18:46:46.788Z,7.00
2022-11-29T18:49:16.887Z,7.00
2022-11-29T18:51:50.755Z,7.00
2022-11-29T18:54:18.769Z,7.00
2022-11-29T18:56:46.108Z,7.00
2022-11-29T18:59:16.707Z,7.00
2022-11-29T19:01:46.059Z,6.90
2022-11-29T19:04:17.454Z,6.90
2022-11-29T19:06:44.344Z,6.90
2022-11-29T19:09:15.328Z,6.90
2022-11-29T19:11:42.384Z,6.90
2022-11-29T19:14:12.050Z,6.80
2022-11-29T19:16:45.003Z,6.80
2022-11-29T19:19:12.051Z,6.80
2022-11-29T19:21:39.951Z,6.70
2022-11-29T19:24:13.487Z,6.70
2022-11-29T19:26:40.944Z,6.70
2022-11-29T19:29:07.632Z,6.70
2022-11-29T19:31:34.225Z,6.70
2022-11-29T19:34:00.828Z,6.60
2022-11-29T19:36:30.496Z,6.60
2022-11-29T19:39:01.479Z,6.50
2022-11-29T19:41:33.468Z,6.50
2022-11-29T19:44:08.828Z,6.50
2022-11-29T19:46:45.775Z,6.40
2022-11-29T19:49:12.847Z,6.40
2022-11-29T19:51:39.474Z,6.30
2022-11-29T19:54:08.557Z,6.30
2022-11-29T19:56:35.600Z,6.30
2022-11-29T19:59:02.584Z,6.20
2022-11-29T20:01:40.104Z,6.20
2022-11-29T20:04:07.728Z,6.10
2022-11-29T20:06:34.958Z,6.10
2022-11-29T20:09:02.082Z,6.10
2022-11-29T20:11:28.747Z,6.00
2022-11-29T20:14:05.829Z,6.00
2022-11-29T20:16:33.167Z,6.00
2022-11-29T20:19:00.087Z,6.00
2022-11-29T20:21:32.331Z,6.00
2022-11-29T20:24:05.708Z,6.00
2022-11-29T20:26:36.472Z,6.00
2022-11-29T20:29:06.943Z,6.00
2022-11-29T20:31:35.659Z,6.00
2022-11-29T20:34:03.151Z,6.00
2022-11-29T20:37:07.114Z,5.90
2022-11-29T20:39:49.063Z,5.90
2022-11-29T20:42:43.735Z,5.90
2022-11-29T20:45:12.437Z,5.90
2022-11-29T20:47:47.827Z,5.90
2022-11-29T20:50:27.955Z,6.00
2022-11-29T20:53:12.652Z,6.00
2022-11-29T20:55:44.842Z,6.10
2022-11-29T20:58:13.175Z,6.10
2022-11-29T21:00:39.897Z,6.10
2022-11-29T21:03:06.551Z,6.10
2022-11-29T21:05:33.211Z,6.10
2022-11-29T21:07:59.983Z,6.10
2022-11-29T21:10:26.686Z,6.10
2022-11-29T21:12:53.762Z,6.10
2022-11-29T21:15:21.015Z,6.10
2022-11-29T21:17:49.268Z,6.10
2022-11-29T21:20:24.448Z,6.10
2022-11-29T21:23:14.172Z,6.10
2022-11-29T21:26:06.795Z,6.10
2022-11-29T21:28:42.119Z,6.10
2022-11-29T21:31:12.942Z,6.10
2022-11-29T21:33:40.066Z,6.10
2022-11-29T21:36:08.789Z,6.10
2022-11-29T21:38:35.526Z,6.10
2022-11-29T21:41:02.174Z,6.10
2022-11-29T21:43:57.987Z,6.20
2022-11-29T21:46:15.420Z,6.20
2022-11-29T21:48:42.498Z,6.20
2022-11-29T21:51:11.094Z,6.10
2022-11-29T21:53:39.554Z,6.20
2022-11-29T21:56:09.171Z,6.20
2022-11-29T21:58:37.827Z,6.20
2022-11-29T22:01:16.515Z,6.20
2022-11-29T22:03:43.643Z,6.20
2022-11-29T22:06:18.438Z,6.30
2022-11-29T22:08:45.082Z,6.30
2022-11-29T22:11:30.319Z,6.30
2022-11-29T22:14:14.474Z,6.30
2022-11-29T22:16:58.054Z,6.40
2022-11-29T22:19:31.306Z,6.30
2022-11-29T22:22:01.335Z,6.40
2022-11-29T22:24:31.734Z,6.40
2022-11-29T22:26:58.703Z,6.40
2022-11-29T22:29:25.707Z,6.40
2022-11-29T22:31:55.013Z,6.40
2022-11-29T22:34:24.883Z,6.40
2022-11-29T22:36:51.491Z,6.40
2022-11-29T22:39:18.155Z,6.40
2022-11-29T22:41:49.261Z,6.40
2022-11-29T22:44:18.994Z,6.40
2022-11-29T22:46:45.587Z,6.40
2022-11-29T22:49:12.342Z,6.40
2022-11-29T22:51:39.058Z,6.30
2022-11-29T22:54:11.453Z,6.30
2022-11-29T22:56:40.732Z,6.30
2022-11-29T22:59:07.961Z,6.30
2022-11-29T23:01:39.682Z,6.30
2022-11-29T23:04:08.863Z,6.30
2022-11-29T23:06:40.689Z,6.30
2022-11-29T23:09:20.904Z,6.30
2022-11-29T23:11:52.581Z,6.30
2022-11-29T23:14:20.154Z,6.30
2022-11-29T23:16:46.962Z,6.30
2022-11-29T23:19:13.630Z,6.30
2022-11-29T23:21:41.146Z,6.30
2022-11-29T23:24:08.194Z,6.30
2022-11-29T23:26:40.009Z,6.30
2022-11-29T23:29:14.207Z,6.30
2022-11-29T23:31:41.201Z,6.40
2022-11-29T23:34:08.218Z,6.40
2022-11-29T23:36:35.096Z,6.40
2022-11-29T23:39:01.831Z,6.40
2022-11-29T23:41:28.598Z,6.40
2022-11-29T23:43:55.278Z,6.40
2022-11-29T23:46:23.953Z,6.40
2022-11-29T23:48:51.763Z,6.40
2022-11-29T23:51:19.546Z,6.40
2022-11-29T23:53:50.964Z,6.40
2022-11-29T23:56:18.933Z,6.40
2022-11-29T23:58:45.974Z,6.40
